createdAt,value
2018-09-08T00:01:16.317Z,14.01
2018-09-08T00:03:43.853Z,14.17
2018-09-08T00:06:11.365Z,14.21
2018-09-08T00:08:38.915Z,14.53
2018-09-08T00:11:06.450Z,14.45
2018-09-08T00:13:34.019Z,14.68
2018-09-08T00:16:07.222Z,14.55
2018-09-08T00:18:40.247Z,14.65
2018-09-08T00:21:13.294Z,14.47
2018-09-08T00:23:46.505Z,14.71
2018-09-08T00:26:19.926Z,14.39
2018-09-08T00:28:47.435Z,14.05
2018-09-08T00:31:14.952Z,14.56
2018-09-08T00:33:42.508Z,14.55
2018-09-08T00:36:12.068Z,14.56
2018-09-08T00:38:39.642Z,14.42
2018-09-08T00:41:07.173Z,14.27
2018-09-08T00:43:34.714Z,14.07
2018-09-08T00:46:02.300Z,14.48
2018-09-08T00:48:29.843Z,14.29
2018-09-08T00:50:57.423Z,14.10
2018-09-08T00:53:24.992Z,13.97
2018-09-08T00:55:52.558Z,13.99
2018-09-08T00:58:20.066Z,13.88
2018-09-08T01:00:47.641Z,13.99
2018-09-08T01:03:15.256Z,14.07
2018-09-08T01:05:42.824Z,14.05
2018-09-08T01:08:10.486Z,14.15
2018-09-08T01:10:38.054Z,14.22
2018-09-08T01:13:05.625Z,13.96
2018-09-08T01:15:33.206Z,13.68
2018-09-08T01:18:00.940Z,13.76
2018-09-08T01:20:28.484Z,13.90
2018-09-08T01:22:56.048Z,13.59
2018-09-08T01:25:23.620Z,13.57
2018-09-08T01:27:51.151Z,13.85
2018-09-08T01:30:18.707Z,13.79
2018-09-08T01:32:46.276Z,13.58
2018-09-08T01:35:13.798Z,13.64
2018-09-08T01:37:41.362Z,13.98
2018-09-08T01:40:08.880Z,13.45
2018-09-08T01:42:36.455Z,13.83
2018-09-08T01:45:04.033Z,13.86
2018-09-08T01:47:33.512Z,13.52
2018-09-08T01:50:01.021Z,13.93
2018-09-08T01:52:28.573Z,13.65
2018-09-08T01:54:56.120Z,13.33
2018-09-08T01:57:23.682Z,13.63
2018-09-08T01:59:51.402Z,13.46
2018-09-08T02:02:18.939Z,13.54
2018-09-08T02:04:46.519Z,13.49
2018-09-08T02:07:14.142Z,13.63
2018-09-08T02:09:41.740Z,13.31
2018-09-08T02:12:09.254Z,13.28
2018-09-08T02:14:36.830Z,13.65
2018-09-08T02:17:04.335Z,13.69
2018-09-08T02:19:31.856Z,13.51
2018-09-08T02:21:59.406Z,13.58
2018-09-08T02:24:27.049Z,13.23
2018-09-08T02:26:56.573Z,13.68
2018-09-08T02:29:24.132Z,13.57
2018-09-08T02:31:51.664Z,13.45
2018-09-08T02:34:20.214Z,13.82
2018-09-08T02:36:47.750Z,13.69
2018-09-08T02:39:15.293Z,13.41
2018-09-08T02:41:42.876Z,13.68
2018-09-08T02:44:10.416Z,13.45
2018-09-08T02:46:38.001Z,13.69
2018-09-08T02:49:05.598Z,13.74
2018-09-08T02:51:32.580Z,13.39
2018-09-08T02:53:59.617Z,13.45
2018-09-08T02:56:26.736Z,13.42
2018-09-08T02:58:53.794Z,13.42
2018-09-08T03:01:20.807Z,13.47
2018-09-08T03:03:47.826Z,13.20
2018-09-08T03:06:14.825Z,13.18
2018-09-08T03:08:41.843Z,13.11
2018-09-08T03:11:08.832Z,13.15
2018-09-08T03:13:35.866Z,13.23
2018-09-08T03:16:02.850Z,13.53
2018-09-08T03:18:29.907Z,13.41
2018-09-08T03:20:56.951Z,13.31
2018-09-08T03:23:23.998Z,13.39
2018-09-08T03:25:51.020Z,13.21
2018-09-08T03:28:17.999Z,13.18
2018-09-08T03:30:45.066Z,13.40
2018-09-08T03:33:12.096Z,13.24
2018-09-08T03:35:39.077Z,13.40
2018-09-08T03:38:06.062Z,13.64
2018-09-08T03:40:33.087Z,13.56
2018-09-08T03:43:00.054Z,13.56
2018-09-08T03:45:27.080Z,13.29
2018-09-08T03:47:54.128Z,13.21
2018-09-08T03:50:21.111Z,13.42
2018-09-08T03:52:48.156Z,13.22
2018-09-08T03:55:15.328Z,13.07
2018-09-08T03:57:42.426Z,13.21
2018-09-08T04:00:09.439Z,13.10
2018-09-08T04:02:37.005Z,13.17
2018-09-08T04:05:04.532Z,13.23
2018-09-08T04:07:36.300Z,12.97
2018-09-08T04:10:03.839Z,13.26
2018-09-08T04:12:31.365Z,13.22
2018-09-08T04:14:58.941Z,13.39
2018-09-08T04:17:26.462Z,12.99
2018-09-08T04:19:54.083Z,13.03
2018-09-08T04:22:21.608Z,13.20
2018-09-08T04:24:49.169Z,12.96
2018-09-08T04:27:16.694Z,13.03
2018-09-08T04:29:45.143Z,13.13
2018-09-08T04:32:12.799Z,13.32
2018-09-08T04:34:40.383Z,13.60
2018-09-08T04:37:07.898Z,13.48
2018-09-08T04:39:35.407Z,13.18
2018-09-08T04:42:03.066Z,13.48
2018-09-08T04:44:30.596Z,13.40
2018-09-08T04:46:58.231Z,13.31
2018-09-08T04:49:25.783Z,13.41
2018-09-08T04:51:53.341Z,13.12
2018-09-08T04:54:26.884Z,13.47
2018-09-08T04:56:54.453Z,13.49
2018-09-08T04:59:22.013Z,13.78
2018-09-08T05:01:49.583Z,13.52
2018-09-08T05:04:17.137Z,13.72
2018-09-08T05:06:44.679Z,13.80
2018-09-08T05:09:12.349Z,13.72
2018-09-08T05:11:40.897Z,13.90
2018-09-08T05:14:08.468Z,13.92
2018-09-08T05:16:36.036Z,13.94
2018-09-08T05:19:03.613Z,14.09
2018-09-08T05:21:31.254Z,14.04
2018-09-08T05:23:58.916Z,14.00
2018-09-08T05:26:26.501Z,14.03
2018-09-08T05:28:55.408Z,14.01
2018-09-08T05:31:22.915Z,13.56
2018-09-08T05:33:50.477Z,13.11
2018-09-08T05:36:17.997Z,13.31
2018-09-08T05:38:45.540Z,13.21
2018-09-08T05:41:13.185Z,13.38
2018-09-08T05:43:40.749Z,13.56
2018-09-08T05:46:08.307Z,13.67
2018-09-08T05:48:35.855Z,13.42
2018-09-08T05:51:03.374Z,13.55
2018-09-08T05:53:31.001Z,13.56
2018-09-08T05:55:58.570Z,13.39
2018-09-08T05:58:27.303Z,13.50
2018-09-08T06:00:54.819Z,13.76
2018-09-08T06:03:22.421Z,13.94
2018-09-08T06:05:53.326Z,13.87
2018-09-08T06:08:20.885Z,13.92
2018-09-08T06:10:48.585Z,14.03
2018-09-08T06:13:22.401Z,13.70
2018-09-08T06:15:49.987Z,13.56
2018-09-08T06:18:17.575Z,13.85
2018-09-08T06:20:45.171Z,13.69
2018-09-08T06:23:12.678Z,13.70
2018-09-08T06:25:40.303Z,13.90
2018-09-08T06:28:07.803Z,14.11
2018-09-08T06:30:35.322Z,14.08
2018-09-08T06:33:03.075Z,13.78
2018-09-08T06:35:30.884Z,13.47
2018-09-08T06:37:58.417Z,13.43
2018-09-08T06:40:26.076Z,13.69
2018-09-08T06:42:53.671Z,13.68
2018-09-08T06:45:21.240Z,13.70
2018-09-08T06:47:49.107Z,14.00
2018-09-08T06:50:16.804Z,14.21
2018-09-08T06:52:44.411Z,14.10
2018-09-08T06:55:12.097Z,14.31
2018-09-08T06:57:39.696Z,14.44
2018-09-08T07:00:07.301Z,14.54
2018-09-08T07:02:35.001Z,14.14
2018-09-08T07:05:02.573Z,13.96
2018-09-08T07:07:30.097Z,14.46
2018-09-08T07:09:57.705Z,14.37
2018-09-08T07:12:26.425Z,14.30
2018-09-08T07:14:53.959Z,14.48
2018-09-08T07:17:23.490Z,14.32
2018-09-08T07:19:55.424Z,14.47
2018-09-08T07:22:23.037Z,14.22
2018-09-08T07:24:50.577Z,14.38
2018-09-08T07:27:18.182Z,14.42
2018-09-08T07:29:45.738Z,14.58
2018-09-08T07:32:26.867Z,14.60
2018-09-08T07:34:54.432Z,14.52
2018-09-08T07:37:24.091Z,14.44
2018-09-08T07:39:51.670Z,14.36
2018-09-08T07:42:19.257Z,14.43
2018-09-08T07:44:49.036Z,14.57
2018-09-08T07:47:17.559Z,14.72
2018-09-08T07:49:45.115Z,14.61
2018-09-08T07:52:13.687Z,14.63
2018-09-08T07:54:42.444Z,14.46
2018-09-08T07:57:09.998Z,14.83
2018-09-08T07:59:41.641Z,14.56
2018-09-08T08:02:09.334Z,14.50
2018-09-08T08:04:36.948Z,14.80
2018-09-08T08:07:04.455Z,14.89
2018-09-08T08:09:32.026Z,14.99
2018-09-08T08:11:59.584Z,14.82
2018-09-08T08:14:27.157Z,14.65
2018-09-08T08:16:54.733Z,14.80
2018-09-08T08:19:22.330Z,14.74
2018-09-08T08:21:49.896Z,14.89
2018-09-08T08:24:17.443Z,14.92
2018-09-08T08:26:45.017Z,15.12
2018-09-08T08:29:12.580Z,14.88
2018-09-08T08:31:40.147Z,15.11
2018-09-08T08:34:07.664Z,15.16
2018-09-08T08:36:35.306Z,15.14
2018-09-08T08:39:02.888Z,15.28
2018-09-08T08:41:30.546Z,15.22
2018-09-08T08:43:58.342Z,15.28
2018-09-08T08:46:25.885Z,15.15
2018-09-08T08:48:53.405Z,15.42
2018-09-08T08:51:43.405Z,15.53
2018-09-08T08:54:11.726Z,15.53
2018-09-08T08:56:44.525Z,15.43
2018-09-08T08:59:12.082Z,15.50
2018-09-08T09:01:39.613Z,15.47
2018-09-08T09:04:10.913Z,15.44
2018-09-08T09:06:38.452Z,15.32
2018-09-08T09:09:06.034Z,15.45
2018-09-08T09:11:33.579Z,15.53
2018-09-08T09:14:01.351Z,15.50
2018-09-08T09:16:28.886Z,15.56
2018-09-08T09:19:09.371Z,15.65
2018-09-08T09:21:59.640Z,15.78
2018-09-08T09:24:27.478Z,15.69
2018-09-08T09:26:54.820Z,15.51
2018-09-08T09:29:23.066Z,15.69
2018-09-08T09:31:50.633Z,15.93
2018-09-08T09:34:18.214Z,16.04
2018-09-08T09:36:45.962Z,15.92
2018-09-08T09:39:13.533Z,15.92
2018-09-08T09:41:41.284Z,16.11
2018-09-08T09:44:10.930Z,16.20
2018-09-08T09:46:38.468Z,16.24
2018-09-08T09:49:06.037Z,16.11
2018-09-08T09:51:34.663Z,16.07
2018-09-08T09:54:03.031Z,16.20
2018-09-08T09:56:30.559Z,16.33
2018-09-08T09:58:58.151Z,16.35
2018-09-08T10:01:25.739Z,16.49
2018-09-08T10:03:53.311Z,16.43
2018-09-08T10:06:20.888Z,16.50
2018-09-08T10:08:48.469Z,16.42
2018-09-08T10:11:18.024Z,15.93
2018-09-08T10:13:45.606Z,16.18
2018-09-08T10:16:15.211Z,16.40
2018-09-08T10:18:43.810Z,16.29
2018-09-08T10:21:11.581Z,16.45
2018-09-08T10:23:39.087Z,16.65
2018-09-08T10:26:06.799Z,16.87
2018-09-08T10:28:34.346Z,16.89
2018-09-08T10:31:01.921Z,16.85
2018-09-08T10:33:29.448Z,16.75
2018-09-08T10:35:56.976Z,16.91
2018-09-08T10:38:24.541Z,16.73
2018-09-08T10:40:52.109Z,16.80
2018-09-08T10:43:19.651Z,16.91
2018-09-08T10:45:47.259Z,16.93
2018-09-08T10:48:14.937Z,16.81
2018-09-08T10:50:42.519Z,16.72
2018-09-08T10:53:10.086Z,16.54
2018-09-08T10:55:39.702Z,16.72
2018-09-08T10:58:07.288Z,16.81
2018-09-08T11:00:34.889Z,16.64
2018-09-08T11:03:02.692Z,16.97
2018-09-08T11:05:30.264Z,16.90
2018-09-08T11:07:57.914Z,17.09
2018-09-08T11:10:25.681Z,17.17
2018-09-08T11:12:53.230Z,17.27
2018-09-08T11:15:20.762Z,17.57
2018-09-08T11:17:48.318Z,17.74
2018-09-08T11:20:15.822Z,17.91
2018-09-08T11:22:43.415Z,17.86
2018-09-08T11:25:11.004Z,18.10
2018-09-08T11:27:38.554Z,17.92
2018-09-08T11:30:07.151Z,17.97
2018-09-08T11:32:34.756Z,18.10
2018-09-08T11:35:02.286Z,18.24
2018-09-08T11:37:32.015Z,18.24
2018-09-08T11:39:59.578Z,18.26
2018-09-08T11:42:27.144Z,18.31
2018-09-08T11:44:54.762Z,18.47
2018-09-08T11:47:24.328Z,18.50
2018-09-08T11:49:51.884Z,18.57
2018-09-08T11:52:19.460Z,18.38
2018-09-08T11:54:46.989Z,18.35
2018-09-08T11:57:14.550Z,18.30
2018-09-08T11:59:42.154Z,18.06
2018-09-08T12:02:09.704Z,17.82
2018-09-08T12:04:37.314Z,18.13
2018-09-08T12:07:04.846Z,18.29
2018-09-08T12:09:32.374Z,18.44
2018-09-08T12:11:59.953Z,18.35
2018-09-08T12:14:27.492Z,18.46
2018-09-08T12:16:55.014Z,18.69
2018-09-08T12:19:22.587Z,18.70
2018-09-08T12:21:50.175Z,18.67
2018-09-08T12:24:17.702Z,19.04
2018-09-08T12:26:45.248Z,18.94
2018-09-08T12:29:12.774Z,19.12
2018-09-08T12:31:40.463Z,19.30
2018-09-08T12:34:07.984Z,19.48
2018-09-08T12:36:35.571Z,19.34
2018-09-08T12:39:03.108Z,19.03
2018-09-08T12:41:30.665Z,18.95
2018-09-08T12:43:58.229Z,18.73
2018-09-08T12:46:25.753Z,18.68
2018-09-08T12:48:53.527Z,18.80
2018-09-08T12:51:21.100Z,18.81
2018-09-08T12:53:48.651Z,19.04
2018-09-08T12:56:16.170Z,18.83
2018-09-08T12:58:43.726Z,18.70
2018-09-08T13:01:15.132Z,18.69
2018-09-08T13:03:42.686Z,19.01
2018-09-08T13:06:10.268Z,18.98
2018-09-08T13:08:37.831Z,19.06
2018-09-08T13:11:05.555Z,19.16
2018-09-08T13:13:33.094Z,19.14
2018-09-08T13:16:00.645Z,19.14
2018-09-08T13:18:28.317Z,18.90
2018-09-08T13:20:55.843Z,18.93
2018-09-08T13:23:23.428Z,19.08
2018-09-08T13:25:50.962Z,18.94
2018-09-08T13:28:18.545Z,19.01
2018-09-08T13:30:46.166Z,19.10
2018-09-08T13:33:13.686Z,19.36
2018-09-08T13:35:41.264Z,19.23
2018-09-08T13:38:08.860Z,19.43
2018-09-08T13:40:36.445Z,19.32
2018-09-08T13:43:03.989Z,19.39
2018-09-08T13:45:31.578Z,19.44
2018-09-08T13:47:59.116Z,19.27
2018-09-08T13:50:28.953Z,19.18
2018-09-08T13:52:56.580Z,18.96
2018-09-08T13:55:24.181Z,18.94
2018-09-08T13:57:51.800Z,19.04
2018-09-08T14:00:19.321Z,19.04
2018-09-08T14:02:48.135Z,19.15
2018-09-08T14:05:15.661Z,19.46
2018-09-08T14:07:43.244Z,19.45
2018-09-08T14:10:10.775Z,19.23
2018-09-08T14:12:38.352Z,19.30
2018-09-08T14:15:05.890Z,19.44
2018-09-08T14:17:33.432Z,19.32
2018-09-08T14:20:00.999Z,19.37
2018-09-08T14:22:28.561Z,19.56
2018-09-08T14:24:56.149Z,19.47
2018-09-08T14:27:23.833Z,19.52
2018-09-08T14:29:51.367Z,19.38
2018-09-08T14:32:18.901Z,19.30
2018-09-08T14:34:46.471Z,19.08
2018-09-08T14:37:14.032Z,19.32
2018-09-08T14:39:41.605Z,19.43
2018-09-08T14:42:09.132Z,19.45
2018-09-08T14:44:36.731Z,19.60
2018-09-08T14:47:04.303Z,19.63
2018-09-08T14:49:31.878Z,19.68
2018-09-08T14:51:59.419Z,19.78
2018-09-08T14:54:26.930Z,19.82
2018-09-08T14:56:54.535Z,19.52
2018-09-08T14:59:22.091Z,19.38
2018-09-08T15:01:49.651Z,19.30
2018-09-08T15:04:17.193Z,19.28
2018-09-08T15:06:44.820Z,19.24
2018-09-08T15:09:12.372Z,19.51
2018-09-08T15:11:39.926Z,19.29
2018-09-08T15:14:14.829Z,19.35
2018-09-08T15:16:42.419Z,19.41
2018-09-08T15:19:09.971Z,19.29
2018-09-08T15:21:37.561Z,19.29
2018-09-08T15:24:05.076Z,18.92
2018-09-08T15:26:32.708Z,19.13
2018-09-08T15:29:00.236Z,19.13
2018-09-08T15:31:27.810Z,19.30
2018-09-08T15:33:55.430Z,19.31
2018-09-08T15:36:22.989Z,19.21
2018-09-08T15:38:50.656Z,19.11
2018-09-08T15:41:18.211Z,18.98
2018-09-08T15:43:45.743Z,19.10
2018-09-08T15:46:13.331Z,19.18
2018-09-08T15:48:40.854Z,19.19
2018-09-08T15:51:08.429Z,19.16
2018-09-08T15:53:35.979Z,19.26
2018-09-08T15:56:03.549Z,19.12
2018-09-08T15:58:31.169Z,19.28
2018-09-08T16:00:59.682Z,19.24
2018-09-08T16:03:27.278Z,19.30
2018-09-08T16:05:54.821Z,19.34
2018-09-08T16:08:22.366Z,19.23
2018-09-08T16:10:49.973Z,19.40
2018-09-08T16:13:17.517Z,19.39
2018-09-08T16:15:45.051Z,19.43
2018-09-08T16:18:12.627Z,19.36
2018-09-08T16:20:40.167Z,19.23
2018-09-08T16:23:07.750Z,19.38
2018-09-08T16:25:35.312Z,19.11
2018-09-08T16:28:02.863Z,19.28
2018-09-08T16:30:30.476Z,18.98
2018-09-08T16:32:58.063Z,19.15
2018-09-08T16:35:25.639Z,18.94
2018-09-08T16:37:53.151Z,18.97
2018-09-08T16:40:20.721Z,19.10
2018-09-08T16:42:48.301Z,19.32
2018-09-08T16:45:15.893Z,19.27
2018-09-08T16:47:43.435Z,19.19
2018-09-08T16:50:11.044Z,19.30
2018-09-08T16:52:38.597Z,19.41
2018-09-08T16:55:06.210Z,19.53
2018-09-08T16:57:33.738Z,19.55
2018-09-08T17:00:01.317Z,19.46
2018-09-08T17:02:28.889Z,19.49
2018-09-08T17:04:57.917Z,19.56
2018-09-08T17:07:25.411Z,19.68
2018-09-08T17:09:53.110Z,19.70
2018-09-08T17:12:20.619Z,19.75
2018-09-08T17:14:48.209Z,19.49
2018-09-08T17:17:15.743Z,19.51
2018-09-08T17:19:43.333Z,19.53
2018-09-08T17:22:10.891Z,19.58
2018-09-08T17:24:38.457Z,19.67
2018-09-08T17:27:05.971Z,19.74
2018-09-08T17:29:33.729Z,19.74
2018-09-08T17:32:01.283Z,19.61
2018-09-08T17:34:28.809Z,19.48
2018-09-08T17:36:56.374Z,19.63
2018-09-08T17:39:23.942Z,19.58
2018-09-08T17:41:51.474Z,19.47
2018-09-08T17:44:19.000Z,19.24
2018-09-08T17:46:46.573Z,19.11
2018-09-08T17:49:14.107Z,19.27
2018-09-08T17:51:41.659Z,19.19
2018-09-08T17:54:09.189Z,19.12
2018-09-08T17:56:36.743Z,18.90
2018-09-08T17:59:04.280Z,19.11
2018-09-08T18:01:31.865Z,19.11
2018-09-08T18:04:03.305Z,19.28
2018-09-08T18:06:30.860Z,18.91
2018-09-08T18:08:58.384Z,19.15
2018-09-08T18:11:25.976Z,18.84
2018-09-08T18:13:53.551Z,18.99
2018-09-08T18:16:21.107Z,19.10
2018-09-08T18:18:48.677Z,19.08
2018-09-08T18:21:19.829Z,19.10
2018-09-08T18:23:47.398Z,18.63
2018-09-08T18:26:14.982Z,18.67
2018-09-08T18:28:42.510Z,18.51
2018-09-08T18:31:10.074Z,18.72
2018-09-08T18:33:39.579Z,18.80
2018-09-08T18:36:07.162Z,18.89
2018-09-08T18:38:34.723Z,18.95
2018-09-08T18:41:02.306Z,18.96
2018-09-08T18:43:29.826Z,19.05
2018-09-08T18:45:57.377Z,18.79
2018-09-08T18:48:30.870Z,18.78
2018-09-08T18:50:58.451Z,18.94
2018-09-08T18:53:26.014Z,19.03
2018-09-08T18:55:53.555Z,18.65
2018-09-08T18:58:21.108Z,18.84
2018-09-08T19:00:48.712Z,18.97
2018-09-08T19:03:17.432Z,18.70
2018-09-08T19:05:45.227Z,18.50
2018-09-08T19:08:12.749Z,18.55
2018-09-08T19:10:40.377Z,18.56
2018-09-08T19:13:07.973Z,18.28
2018-09-08T19:15:35.504Z,18.49
2018-09-08T19:18:03.073Z,18.64
2018-09-08T19:20:30.661Z,18.75
2018-09-08T19:22:58.227Z,18.81
2018-09-08T19:25:25.767Z,18.84
2018-09-08T19:27:53.334Z,18.81
2018-09-08T19:30:20.909Z,18.51
2018-09-08T19:32:48.480Z,18.51
2018-09-08T19:35:16.010Z,18.41
2018-09-08T19:37:43.523Z,18.58
2018-09-08T19:40:11.097Z,18.63
2018-09-08T19:42:38.706Z,18.74
2018-09-08T19:45:06.236Z,18.82
2018-09-08T19:47:51.445Z,18.35
2018-09-08T19:50:19.006Z,18.32
2018-09-08T19:52:52.133Z,18.16
2018-09-08T19:55:19.661Z,18.42
2018-09-08T19:57:52.837Z,18.27
2018-09-08T20:00:20.342Z,18.45
2018-09-08T20:02:47.906Z,18.45
2018-09-08T20:05:15.451Z,18.51
2018-09-08T20:07:42.991Z,18.23
2018-09-08T20:10:10.517Z,18.25
2018-09-08T20:12:38.071Z,18.13
2018-09-08T20:15:05.594Z,18.15
2018-09-08T20:17:33.157Z,17.91
2018-09-08T20:20:00.731Z,18.02
2018-09-08T20:22:28.273Z,17.81
2018-09-08T20:24:55.818Z,17.91
2018-09-08T20:27:23.340Z,17.81
2018-09-08T20:29:50.924Z,17.96
2018-09-08T20:32:18.468Z,17.95
2018-09-08T20:34:46.023Z,18.01
2018-09-08T20:37:13.575Z,17.75
2018-09-08T20:39:41.133Z,17.67
2018-09-08T20:42:08.664Z,17.67
2018-09-08T20:44:36.278Z,17.85
2018-09-08T20:47:03.812Z,18.06
2018-09-08T20:49:31.378Z,17.99
2018-09-08T20:51:58.913Z,18.07
2018-09-08T20:54:26.497Z,17.84
2018-09-08T20:56:54.036Z,17.71
2018-09-08T20:59:21.542Z,17.81
2018-09-08T21:01:49.124Z,17.65
2018-09-08T21:04:16.674Z,17.96
2018-09-08T21:06:44.245Z,17.93
2018-09-08T21:09:11.769Z,17.86
2018-09-08T21:11:39.320Z,17.61
2018-09-08T21:14:06.892Z,17.36
2018-09-08T21:16:34.444Z,17.35
2018-09-08T21:19:02.067Z,17.29
2018-09-08T21:21:29.585Z,17.07
2018-09-08T21:23:57.117Z,16.94
2018-09-08T21:26:24.670Z,17.07
2018-09-08T21:28:52.246Z,17.11
2018-09-08T21:31:19.780Z,16.81
2018-09-08T21:33:47.330Z,16.93
2018-09-08T21:36:14.840Z,16.97
2018-09-08T21:38:42.392Z,16.96
2018-09-08T21:41:09.939Z,17.05
2018-09-08T21:43:37.498Z,16.93
2018-09-08T21:46:05.039Z,17.17
2018-09-08T21:48:32.594Z,17.31
2018-09-08T21:51:00.154Z,17.42
2018-09-08T21:53:27.735Z,17.62
2018-09-08T21:55:55.336Z,17.77
2018-09-08T21:58:22.901Z,17.78
2018-09-08T22:00:54.077Z,17.80
2018-09-08T22:03:21.652Z,17.82
2018-09-08T22:05:49.196Z,17.94
2018-09-08T22:08:16.752Z,17.61
2018-09-08T22:10:44.298Z,17.79
2018-09-08T22:13:11.878Z,17.52
2018-09-08T22:15:39.425Z,17.35
2018-09-08T22:18:06.963Z,17.53
2018-09-08T22:20:34.470Z,17.65
2018-09-08T22:23:02.041Z,17.56
2018-09-08T22:25:29.582Z,17.28
2018-09-08T22:27:57.119Z,17.38
2018-09-08T22:30:24.853Z,17.54
2018-09-08T22:32:55.672Z,17.40
2018-09-08T22:35:23.395Z,17.40
2018-09-08T22:37:50.898Z,17.53
2018-09-08T22:40:18.417Z,17.67
2018-09-08T22:42:47.995Z,17.63
2018-09-08T22:45:17.929Z,17.73
2018-09-08T22:47:45.464Z,17.79
2018-09-08T22:50:14.058Z,17.55
2018-09-08T22:52:41.635Z,17.36
2018-09-08T22:55:09.247Z,17.42
2018-09-08T22:57:37.980Z,17.37
2018-09-08T23:00:05.520Z,17.50
2018-09-08T23:02:33.063Z,17.42
2018-09-08T23:05:08.326Z,17.47
2018-09-08T23:07:39.448Z,17.56
2018-09-08T23:10:07.225Z,17.31
2018-09-08T23:12:34.816Z,17.36
2018-09-08T23:15:02.316Z,17.11
2018-09-08T23:17:29.840Z,16.95
2018-09-08T23:19:57.433Z,16.87
2018-09-08T23:22:24.955Z,16.66
2018-09-08T23:24:54.467Z,16.63
2018-09-08T23:27:22.014Z,16.45
2018-09-08T23:29:49.544Z,16.66
2018-09-08T23:32:17.115Z,16.64
2018-09-08T23:34:44.647Z,16.68
2018-09-08T23:37:12.199Z,16.76
2018-09-08T23:39:39.724Z,16.94
2018-09-08T23:42:07.384Z,16.93
2018-09-08T23:44:34.920Z,16.83
2018-09-08T23:47:02.445Z,16.82
2018-09-08T23:49:30.005Z,16.88
2018-09-08T23:51:57.591Z,16.67
2018-09-08T23:54:25.148Z,16.48
2018-09-08T23:56:52.647Z,16.56
2018-09-08T23:59:20.197Z,16.31
